Time;durP1;ratioP1;P1;durP2;ratioP2;P2;SDS_P1;SDS_P2;PMS_P1;PMS_P2;Temp;Humidity;BMP_temperature;BMP_pressure;BME280_temperature;BME280_humidity;BME280_pressure;Samples;Min_cycle;Max_cycle;Signal;HPM_P1;HPM_P2
2023/03/21 00:00:40;;;;;;;;;;;;;;;;;;4994319;28;20391;-88
2023/03/21 00:03:27;;;;;;;;;;;;;;;;;;5000239;28;19924;-88
2023/03/21 00:06:14;;;;;;;;;;;;;;;;;;4991878;28;19917;-87
2023/03/21 00:09:00;;;;;;;;;;;;;;;;;;4991651;28;20404;-88
2023/03/21 00:11:47;;;;;;;;;;;;;;;;;;5006353;28;19924;-88
2023/03/21 00:14:33;;;;;;;;;;;;;;;;;;4998382;28;19934;-88
2023/03/21 00:17:21;;;;;;;;;;;;;;;;;;5003440;28;20388;-87
2023/03/21 00:20:16;;;;;;;;;;;;;;;;;;4994433;28;19918;-87
2023/03/21 00:23:03;;;;;;;;;;;;;;;;;;4999570;28;19925;-87
2023/03/21 00:25:49;;;;;;;;;;;;;;;;;;5000821;28;19914;-87
2023/03/21 00:28:36;;;;;;;;;;;;;;;;;;5005674;28;19924;-87
2023/03/21 00:31:22;;;;;;;;;;;;;;;;;;4993714;28;19914;-87
2023/03/21 00:34:09;;;;;;;;;;;;;;;;;;5003456;28;19929;-85
2023/03/21 00:36:55;;;;;;;;;;;;;;;;;;4996559;28;19924;-86
2023/03/21 00:39:43;;;;;;;;;;;;;;;;;;4999060;28;19926;-86
2023/03/21 00:42:29;;;;;;;;;;;;;;;;;;5008182;28;19921;-88
2023/03/21 00:45:18;;;;;;;;;;;;;;;;;;5007087;28;19952;-87
2023/03/21 00:48:04;;;;;;;;;;;;;;;;;;5011194;28;19952;-87
2023/03/21 00:50:51;;;;;;;;;;;;;;;;;;4997396;28;19917;-87
2023/03/21 00:53:37;;;;;;;;;;;;;;;;;;5004473;28;19933;-87
2023/03/21 00:56:24;;;;;;;;;;;;;;;;;;5000337;28;19925;-87
2023/03/21 00:59:10;;;;;;;;;;;;;;;;;;5011190;28;19921;-89
2023/03/21 01:01:59;;;;;;;;;;;;;;;;;;4994117;28;20305;-88
2023/03/21 01:04:45;;;;;;;;;;;;;;;;;;5004343;28;20281;-88
2023/03/21 01:07:32;;;;;;;;;;;;;;;;;;4993938;28;19983;-89
2023/03/21 01:10:18;;;;;;;;;;;;;;;;;;4994253;28;19921;-89
2023/03/21 01:13:04;;;;;;;;;;;;;;;;;;5007954;28;19929;-88
2023/03/21 01:15:51;;;;;;;;;;;;;;;;;;4997417;28;19924;-88
2023/03/21 01:18:38;;;;;;;;;;;;;;;;;;5007146;28;19914;-88
2023/03/21 01:21:24;;;;;;;;;;;;;;;;;;4994525;28;19918;-89
2023/03/21 01:24:11;;;;;;;;;;;;;;;;;;5004851;28;19917;-88
2023/03/21 01:26:57;;;;;;;;;;;;;;;;;;5004968;28;19920;-87
2023/03/21 01:29:44;;;;;;;;;;;;;;;;;;5008685;28;20567;-88
2023/03/21 01:32:30;;;;;;;;;;;;;;;;;;4995370;28;19928;-88
2023/03/21 01:35:17;;;;;;;;;;;;;;;;;;4997447;28;19922;-86
2023/03/21 01:38:03;;;;;;;;;;;;;;;;;;4995547;28;19917;-87
2023/03/21 01:40:50;;;;;;;;;;;;;;;;;;4996723;28;20328;-87
2023/03/21 01:43:36;;;;;;;;;;;;;;;;;;4998611;28;19928;-87
2023/03/21 01:46:23;;;;;;;;;;;;;;;;;;5003420;28;20402;-87
2023/03/21 01:49:10;;;;;;;;;;;;;;;;;;4984686;28;19917;-86
2023/03/21 01:51:56;;;;;;;;;;;;;;;;;;4989885;28;19928;-87
2023/03/21 01:54:42;;;;;;;;;;;;;;;;;;5001664;28;20424;-87
2023/03/21 01:57:31;;;;;;;;;;;;;;;;;;5011079;28;20289;-86
2023/03/21 02:00:17;;;;;;;;;;;;;;;;;;4998326;28;19914;-86
2023/03/21 02:03:04;;;;;;;;;;;;;;;;;;4999858;28;20292;-86
2023/03/21 02:05:50;;;;;;;;;;;;;;;;;;5000492;28;19921;-86
2023/03/21 02:08:37;;;;;;;;;;;;;;;;;;5002297;28;19914;-88
2023/03/21 02:11:25;;;;;;;;;;;;;;;;;;4995683;28;20379;-88
2023/03/21 02:14:12;;;;;;;;;;;;;;;;;;5003466;28;19935;-88
2023/03/21 02:16:58;;;;;;;;;;;;;;;;;;5006606;28;19918;-88
2023/03/21 02:19:45;;;;;;;;;;;;;;;;;;5002705;28;19921;-87
2023/03/21 02:22:31;;;;;;;;;;;;;;;;;;4986691;28;19944;-87
2023/03/21 02:25:18;;;;;;;;;;;;;;;;;;4996877;28;19928;-87
2023/03/21 02:28:06;;;;;;;;;;;;;;;;;;5006489;28;19928;-89
2023/03/21 02:30:53;;;;;;;;;;;;;;;;;;5003841;28;19918;-88
2023/03/21 02:33:40;;;;;;;;;;;;;;;;;;4994681;28;20383;-87
2023/03/21 02:36:26;;;;;;;;;;;;;;;;;;4991559;28;19950;-87
2023/03/21 02:39:13;;;;;;;;;;;;;;;;;;5006817;28;19917;-87
2023/03/21 02:41:59;;;;;;;;;;;;;;;;;;4992300;28;19928;-87
2023/03/21 02:44:46;;;;;;;;;;;;;;;;;;4992089;28;19924;-88
2023/03/21 02:47:33;;;;;;;;;;;;;;;;;;4984626;28;19917;-87
2023/03/21 02:50:19;;;;;;;;;;;;;;;;;;5006323;28;20240;-88
2023/03/21 02:53:06;;;;;;;;;;;;;;;;;;4996172;28;19936;-88
2023/03/21 02:55:52;;;;;;;;;;;;;;;;;;5006107;28;19928;-87
2023/03/21 02:58:39;;;;;;;;;;;;;;;;;;5000748;28;19921;-87
2023/03/21 03:01:25;;;;;;;;;;;;;;;;;;5002118;28;19918;-86
2023/03/21 03:04:12;;;;;;;;;;;;;;;;;;4999625;28;19921;-85
2023/03/21 03:06:59;;;;;;;;;;;;;;;;;;5007504;28;20316;-87
2023/03/21 03:09:46;;;;;;;;;;;;;;;;;;5002715;28;19918;-87
2023/03/21 03:12:33;;;;;;;;;;;;;;;;;;4989616;28;20384;-86
2023/03/21 03:15:20;;;;;;;;;;;;;;;;;;4990932;28;19925;-86
2023/03/21 03:18:07;;;;;;;;;;;;;;;;;;5001387;28;19918;-87
2023/03/21 03:20:53;;;;;;;;;;;;;;;;;;4996679;28;19919;-87
2023/03/21 03:23:40;;;;;;;;;;;;;;;;;;4996980;28;19936;-86
2023/03/21 03:26:27;;;;;;;;;;;;;;;;;;5004596;28;19917;-86
2023/03/21 03:29:13;;;;;;;;;;;;;;;;;;4993452;28;19926;-86
2023/03/21 03:32:00;;;;;;;;;;;;;;;;;;4998616;28;19918;-86
2023/03/21 03:34:48;;;;;;;;;;;;;;;;;;4995857;28;20460;-87
2023/03/21 03:37:36;;;;;;;;;;;;;;;;;;5003396;28;19921;-86
2023/03/21 03:40:23;;;;;;;;;;;;;;;;;;5003875;28;19917;-87
2023/03/21 03:43:09;;;;;;;;;;;;;;;;;;4994548;28;20142;-95
2023/03/21 03:45:56;;;;;;;;;;;;;;;;;;5019555;28;20021;-95
2023/03/21 03:48:45;;;;;;;;;;;;;;;;;;5019004;28;19916;-95
2023/03/21 03:51:31;;;;;;;;;;;;;;;;;;5028907;28;19926;-96
2023/03/21 03:54:18;;;;;;;;;;;;;;;;;;5031629;28;19925;-89
2023/03/21 03:57:04;;;;;;;;;;;;;;;;;;5033386;28;19901;-95
2023/03/21 03:59:51;;;;;;;;;;;;;;;;;;5029049;28;19928;-92
2023/03/21 04:02:50;;;;;;;;;;;;;;;;;;5023788;28;19916;-84
2023/03/21 04:05:36;;;;;;;;;;;;;;;;;;5007634;28;19913;-87
2023/03/21 04:08:23;;;;;;;;;;;;;;;;;;5025247;28;19905;-94
2023/03/21 04:11:09;;;;;;;;;;;;;;;;;;5030718;28;19921;-92
2023/03/21 04:13:56;;;;;;;;;;;;;;;;;;5023373;28;19938;-95
2023/03/21 04:16:53;;;;;;;;;;;;;;;;;;5028070;28;19909;-95
2023/03/21 04:19:39;;;;;;;;;;;;;;;;;;5020207;28;20277;-95
2023/03/21 04:22:26;;;;;;;;;;;;;;;;;;5019631;28;19921;-96
2023/03/21 04:25:13;;;;;;;;;;;;;;;;;;5023234;28;19917;-92
2023/03/21 04:27:59;;;;;;;;;;;;;;;;;;5022538;28;19917;-95
2023/03/21 04:30:48;;;;;;;;;;;;;;;;;;5015411;28;20031;-95
2023/03/21 04:33:37;;;;;;;;;;;;;;;;;;5011423;28;19917;-88
2023/03/21 04:36:26;;;;;;;;;;;;;;;;;;4994975;28;19941;-91
2023/03/21 04:39:12;;;;;;;;;;;;;;;;;;5000472;28;20385;-90
2023/03/21 04:41:59;;;;;;;;;;;;;;;;;;5009805;28;19939;-94
2023/03/21 04:44:45;;;;;;;;;;;;;;;;;;5005388;28;19921;-90
2023/03/21 04:47:32;;;;;;;;;;;;;;;;;;5016760;28;19932;-93
2023/03/21 04:50:19;;;;;;;;;;;;;;;;;;5012791;28;19918;-95
2023/03/21 04:53:05;;;;;;;;;;;;;;;;;;4991336;28;19918;-94
2023/03/21 04:55:52;;;;;;;;;;;;;;;;;;5003299;28;19924;-93
2023/03/21 04:58:39;;;;;;;;;;;;;;;;;;5013028;28;19914;-89
2023/03/21 05:01:29;;;;;;;;;;;;;;;;;;5001650;28;19921;-89
2023/03/21 05:04:16;;;;;;;;;;;;;;;;;;5005411;28;19927;-89
2023/03/21 05:07:02;;;;;;;;;;;;;;;;;;4991931;28;19921;-90
2023/03/21 05:09:49;;;;;;;;;;;;;;;;;;4996674;28;19933;-87
2023/03/21 05:12:35;;;;;;;;;;;;;;;;;;5000014;28;19923;-88
2023/03/21 05:15:22;;;;;;;;;;;;;;;;;;4994800;28;20380;-89
2023/03/21 05:18:11;;;;;;;;;;;;;;;;;;5001476;28;19913;-87
2023/03/21 05:20:57;;;;;;;;;;;;;;;;;;4997384;28;19918;-88
2023/03/21 05:23:44;;;;;;;;;;;;;;;;;;5005939;28;19921;-87
2023/03/21 05:26:30;;;;;;;;;;;;;;;;;;4993669;28;19928;-87
2023/03/21 05:29:17;;;;;;;;;;;;;;;;;;4996033;28;19921;-85
2023/03/21 05:32:03;;;;;;;;;;;;;;;;;;5004303;28;20319;-85
2023/03/21 05:34:50;;;;;;;;;;;;;;;;;;5006844;28;19930;-87
2023/03/21 05:37:37;;;;;;;;;;;;;;;;;;4993368;28;19921;-87
2023/03/21 05:40:23;;;;;;;;;;;;;;;;;;5004083;28;19914;-87
2023/03/21 05:43:10;;;;;;;;;;;;;;;;;;5008062;28;19913;-86
2023/03/21 05:45:56;;;;;;;;;;;;;;;;;;4996580;28;19947;-87
2023/03/21 05:48:43;;;;;;;;;;;;;;;;;;4999517;28;19917;-87
2023/03/21 05:51:29;;;;;;;;;;;;;;;;;;5002973;28;19940;-87
2023/03/21 05:54:16;;;;;;;;;;;;;;;;;;5005889;28;19925;-88
2023/03/21 05:57:02;;;;;;;;;;;;;;;;;;5006000;28;19952;-88
2023/03/21 05:59:49;;;;;;;;;;;;;;;;;;5001265;28;19920;-87
2023/03/21 06:02:35;;;;;;;;;;;;;;;;;;5005291;28;20476;-87
2023/03/21 06:05:22;;;;;;;;;;;;;;;;;;4992268;28;19922;-87
2023/03/21 06:08:08;;;;;;;;;;;;;;;;;;4997997;28;19918;-87
2023/03/21 06:10:55;;;;;;;;;;;;;;;;;;4998395;28;20116;-87
2023/03/21 06:13:41;;;;;;;;;;;;;;;;;;5003691;28;19937;-87
2023/03/21 06:16:28;;;;;;;;;;;;;;;;;;5004403;28;19917;-87
2023/03/21 06:19:15;;;;;;;;;;;;;;;;;;5005305;28;19928;-87
2023/03/21 06:22:01;;;;;;;;;;;;;;;;;;5008183;28;19925;-87
2023/03/21 06:24:48;;;;;;;;;;;;;;;;;;5002533;28;20302;-87
2023/03/21 06:27:34;;;;;;;;;;;;;;;;;;5003809;28;19922;-87
2023/03/21 06:30:20;;;;;;;;;;;;;;;;;;5004655;28;19943;-87
2023/03/21 06:33:07;;;;;;;;;;;;;;;;;;5001369;28;19928;-87
2023/03/21 06:35:54;;;;;;;;;;;;;;;;;;5004653;28;19933;-86
2023/03/21 06:38:40;;;;;;;;;;;;;;;;;;5003181;28;19922;-86
2023/03/21 06:41:26;;;;;;;;;;;;;;;;;;5003813;28;19944;-89
2023/03/21 06:44:13;;;;;;;;;;;;;;;;;;4989832;28;19932;-86
2023/03/21 06:47:00;;;;;;;;;;;;;;;;;;5004280;28;19922;-85
2023/03/21 06:49:46;;;;;;;;;;;;;;;;;;5001905;28;19929;-86
2023/03/21 06:52:33;;;;;;;;;;;;;;;;;;5001826;28;20760;-86
2023/03/21 06:55:24;;;;;;;;;;;;;;;;;;5005540;28;19925;-87
2023/03/21 06:58:11;;;;;;;;;;;;;;;;;;5005798;28;19922;-86
2023/03/21 07:00:58;;;;;;;;;;;;;;;;;;5001433;28;19917;-86
2023/03/21 07:03:44;;;;;;;;;;;;;;;;;;5006156;28;20376;-88
2023/03/21 07:06:30;;;;;;;;;;;;;;;;;;5003975;28;19926;-86
2023/03/21 07:09:18;;;;;;;;;;;;;;;;;;5001226;28;20311;-86
2023/03/21 07:12:05;;;;;;;;;;;;;;;;;;5005069;28;19940;-86
2023/03/21 07:14:51;;;;;;;;;;;;;;;;;;5002608;28;19936;-86
2023/03/21 07:17:38;;;;;;;;;;;;;;;;;;5000765;28;19927;-85
2023/03/21 07:20:25;;;;;;;;;;;;;;;;;;5004654;28;19928;-87
2023/03/21 07:23:12;;;;;;;;;;;;;;;;;;4999289;28;20285;-78
2023/03/21 07:25:58;;;;;;;;;;;;;;;;;;5001210;28;19921;-86
2023/03/21 07:28:45;;;;;;;;;;;;;;;;;;5005130;28;19922;-86
2023/03/21 07:31:31;;;;;;;;;;;;;;;;;;5004958;28;20564;-86
2023/03/21 07:34:18;;;;;;;;;;;;;;;;;;5002174;28;19929;-86
2023/03/21 07:37:05;;;;;;;;;;;;;;;;;;4998527;28;20296;-84
2023/03/21 07:39:52;;;;;;;;;;;;;;;;;;5004012;28;19921;-86
2023/03/21 07:42:38;;;;;;;;;;;;;;;;;;4997941;28;19917;-85
2023/03/21 07:45:26;;;;;;;;;;;;;;;;;;5001364;28;19926;-85
2023/03/21 07:48:12;;;;;;;;;;;;;;;;;;5001489;28;19918;-83
2023/03/21 07:51:01;;;;;;;;;;;;;;;;;;4999503;28;19921;-87
2023/03/21 07:53:48;;;;;;;;;;;;;;;;;;4996427;28;19928;-86
2023/03/21 07:56:35;;;;;;;;;;;;;;;;;;5001243;28;19925;-88
2023/03/21 07:59:21;;;;;;;;;;;;;;;;;;5003372;28;19928;-88
2023/03/21 08:02:08;;;;;;;;;;;;;;;;;;5003315;28;19925;-86
2023/03/21 08:04:55;;;;;;;;;;;;;;;;;;4998767;28;19914;-87
2023/03/21 08:07:41;;;;;;;;;;;;;;;;;;5005129;28;19921;-88
2023/03/21 08:10:28;;;;;;;;;;;;;;;;;;5002222;28;19923;-87
2023/03/21 08:13:14;;;;;;;;;;;;;;;;;;5003214;28;19922;-87
2023/03/21 08:16:01;;;;;;;;;;;;;;;;;;4997453;28;19930;-88
2023/03/21 08:18:47;;;;;;;;;;;;;;;;;;4992686;28;20292;-87
2023/03/21 08:21:34;;;;;;;;;;;;;;;;;;5008351;28;19922;-88
2023/03/21 08:24:20;;;;;;;;;;;;;;;;;;5006330;28;19918;-87
2023/03/21 08:27:07;;;;;;;;;;;;;;;;;;5003363;28;19921;-88
2023/03/21 08:29:54;;;;;;;;;;;;;;;;;;4998465;28;19928;-87
2023/03/21 08:32:41;;;;;;;;;;;;;;;;;;4997928;28;19927;-87
2023/03/21 08:35:28;;;;;;;;;;;;;;;;;;4995673;28;19922;-88
2023/03/21 08:38:14;;;;;;;;;;;;;;;;;;5004643;28;19917;-86
2023/03/21 08:41:01;;;;;;;;;;;;;;;;;;4996777;28;19928;-88
2023/03/21 08:43:47;;;;;;;;;;;;;;;;;;5003337;28;19928;-87
2023/03/21 08:46:34;;;;;;;;;;;;;;;;;;4993067;28;19921;-88
2023/03/21 08:49:21;;;;;;;;;;;;;;;;;;4998553;28;19921;-87
2023/03/21 08:52:08;;;;;;;;;;;;;;;;;;5001506;28;19921;-88
2023/03/21 08:54:54;;;;;;;;;;;;;;;;;;5001860;28;19932;-88
2023/03/21 08:57:41;;;;;;;;;;;;;;;;;;5004700;28;19918;-87
2023/03/21 09:00:27;;;;;;;;;;;;;;;;;;5003756;28;19928;-87
2023/03/21 09:03:14;;;;;;;;;;;;;;;;;;5000435;28;19929;-87
2023/03/21 09:06:01;;;;;;;;;;;;;;;;;;4996776;28;19921;-89
2023/03/21 09:08:51;;;;;;;;;;;;;;;;;;5000003;28;19924;-89
2023/03/21 09:11:38;;;;;;;;;;;;;;;;;;5003802;28;20421;-88
2023/03/21 09:14:24;;;;;;;;;;;;;;;;;;5005690;28;19936;-88
2023/03/21 09:17:11;;;;;;;;;;;;;;;;;;5007137;28;19917;-86
2023/03/21 09:19:59;;;;;;;;;;;;;;;;;;5006600;28;19922;-85
2023/03/21 09:22:46;;;;;;;;;;;;;;;;;;5007263;28;19922;-85
2023/03/21 09:25:32;;;;;;;;;;;;;;;;;;5001099;28;19932;-89
2023/03/21 09:28:19;;;;;;;;;;;;;;;;;;5000721;28;19918;-88
2023/03/21 09:31:10;;;;;;;;;;;;;;;;;;5001190;28;19941;-87
2023/03/21 09:33:56;;;;;;;;;;;;;;;;;;4998327;28;20285;-87
2023/03/21 09:36:43;;;;;;;;;;;;;;;;;;5001623;28;19925;-85
2023/03/21 09:39:30;;;;;;;;;;;;;;;;;;5004820;28;20495;-86
2023/03/21 09:42:16;;;;;;;;;;;;;;;;;;5004394;28;19922;-87
2023/03/21 09:45:03;;;;;;;;;;;;;;;;;;5007562;28;19945;-85
2023/03/21 09:47:53;;;;;;;;;;;;;;;;;;5002564;28;19914;-86
2023/03/21 09:50:39;;;;;;;;;;;;;;;;;;5001054;28;19928;-85
2023/03/21 09:53:26;;;;;;;;;;;;;;;;;;5004822;28;20305;-85
2023/03/21 09:56:13;;;;;;;;;;;;;;;;;;4996161;28;19936;-84
2023/03/21 09:58:59;;;;;;;;;;;;;;;;;;5002813;28;19925;-87
2023/03/21 10:01:46;;;;;;;;;;;;;;;;;;5001327;28;19928;-86
2023/03/21 10:04:32;;;;;;;;;;;;;;;;;;4998975;28;19925;-86
2023/03/21 10:07:19;;;;;;;;;;;;;;;;;;5004449;28;19928;-86
2023/03/21 10:10:06;;;;;;;;;;;;;;;;;;4997004;28;19921;-87
2023/03/21 10:12:52;;;;;;;;;;;;;;;;;;4996699;28;19925;-85
2023/03/21 10:15:39;;;;;;;;;;;;;;;;;;4994894;28;19936;-86
2023/03/21 10:18:25;;;;;;;;;;;;;;;;;;5002987;28;19917;-85
2023/03/21 10:21:15;;;;;;;;;;;;;;;;;;4999054;28;19922;-77
2023/03/21 10:24:01;;;;;;;;;;;;;;;;;;4999456;28;19928;-86
2023/03/21 10:26:48;;;;;;;;;;;;;;;;;;5004268;28;20400;-86
2023/03/21 10:29:35;;;;;;;;;;;;;;;;;;5003409;28;19928;-87
2023/03/21 10:32:22;;;;;;;;;;;;;;;;;;5006059;28;20377;-86
2023/03/21 10:35:08;;;;;;;;;;;;;;;;;;5007470;28;19925;-86
2023/03/21 10:37:57;;;;;;;;;;;;;;;;;;5007088;28;20253;-86
2023/03/21 10:40:49;;;;;;;;;;;;;;;;;;5000631;28;20497;-87
2023/03/21 10:43:36;;;;;;;;;;;;;;;;;;5000918;28;19929;-87
2023/03/21 10:46:23;;;;;;;;;;;;;;;;;;4989208;28;19926;-86
2023/03/21 10:49:09;;;;;;;;;;;;;;;;;;5003399;28;19925;-87
2023/03/21 10:51:56;;;;;;;;;;;;;;;;;;5004619;28;19928;-87
2023/03/21 10:54:42;;;;;;;;;;;;;;;;;;5001679;28;20389;-87
2023/03/21 10:57:29;;;;;;;;;;;;;;;;;;5001215;28;19921;-87
2023/03/21 11:00:17;;;;;;;;;;;;;;;;;;5003767;28;19932;-87
2023/03/21 11:03:03;;;;;;;;;;;;;;;;;;5002356;28;19926;-87
2023/03/21 11:05:50;;;;;;;;;;;;;;;;;;5005217;28;20697;-88
2023/03/21 11:08:36;;;;;;;;;;;;;;;;;;5001668;28;19917;-88
2023/03/21 11:11:22;;;;;;;;;;;;;;;;;;5003386;28;19962;-87
2023/03/21 11:14:09;;;;;;;;;;;;;;;;;;5004576;28;20396;-88
2023/03/21 11:16:55;;;;;;;;;;;;;;;;;;5002943;28;19922;-88
2023/03/21 11:19:43;;;;;;;;;;;;;;;;;;5001393;28;19932;-88
2023/03/21 11:22:30;;;;;;;;;;;;;;;;;;5004050;28;19922;-88
2023/03/21 11:25:16;;;;;;;;;;;;;;;;;;4998027;28;19928;-86
2023/03/21 11:28:03;;;;;;;;;;;;;;;;;;5004433;28;19933;-86
2023/03/21 11:30:49;;;;;;;;;;;;;;;;;;5003014;28;19933;-85
2023/03/21 11:33:36;;;;;;;;;;;;;;;;;;5003922;28;19921;-87
2023/03/21 11:36:22;;;;;;;;;;;;;;;;;;5001057;28;20383;-89
2023/03/21 11:39:09;;;;;;;;;;;;;;;;;;5003693;28;19917;-88
2023/03/21 11:41:56;;;;;;;;;;;;;;;;;;4998152;28;19921;-88
2023/03/21 11:44:42;;;;;;;;;;;;;;;;;;5004383;28;19921;-89
2023/03/21 11:47:30;;;;;;;;;;;;;;;;;;5003267;28;19929;-89
2023/03/21 11:50:16;;;;;;;;;;;;;;;;;;5000842;28;19928;-89
2023/03/21 11:53:03;;;;;;;;;;;;;;;;;;4993220;28;20091;-88
2023/03/21 11:55:49;;;;;;;;;;;;;;;;;;5001203;28;20420;-90
2023/03/21 11:58:36;;;;;;;;;;;;;;;;;;5001087;28;19921;-88
2023/03/21 12:01:22;;;;;;;;;;;;;;;;;;4997737;28;19930;-88
2023/03/21 12:04:09;;;;;;;;;;;;;;;;;;5000980;28;19937;-89
2023/03/21 12:06:56;;;;;;;;;;;;;;;;;;5000335;28;19944;-85
2023/03/21 12:09:42;;;;;;;;;;;;;;;;;;4999384;28;20288;-85
2023/03/21 12:12:29;;;;;;;;;;;;;;;;;;5001427;28;19928;-86
2023/03/21 12:15:15;;;;;;;;;;;;;;;;;;5001650;28;20286;-87
2023/03/21 12:18:02;;;;;;;;;;;;;;;;;;5004270;28;19922;-88
2023/03/21 12:20:48;;;;;;;;;;;;;;;;;;4984635;28;19959;-88
2023/03/21 12:23:35;;;;;;;;;;;;;;;;;;4988616;28;20281;-87
2023/03/21 12:26:22;;;;;;;;;;;;;;;;;;4983983;28;19913;-87
2023/03/21 12:29:08;;;;;;;;;;;;;;;;;;4987669;28;19977;-89
2023/03/21 12:31:55;;;;;;;;;;;;;;;;;;5002227;28;19921;-88
2023/03/21 12:34:41;;;;;;;;;;;;;;;;;;5001302;28;19921;-89
2023/03/21 12:37:28;;;;;;;;;;;;;;;;;;5002270;28;19932;-89
2023/03/21 12:40:14;;;;;;;;;;;;;;;;;;5004716;28;19932;-87
2023/03/21 12:43:01;;;;;;;;;;;;;;;;;;5004406;28;19918;-89
2023/03/21 12:45:47;;;;;;;;;;;;;;;;;;5003244;28;19948;-89
2023/03/21 12:48:34;;;;;;;;;;;;;;;;;;5005374;28;20369;-89
2023/03/21 12:51:20;;;;;;;;;;;;;;;;;;5003156;28;20392;-88
2023/03/21 12:54:07;;;;;;;;;;;;;;;;;;5003641;28;20296;-88
2023/03/21 12:56:53;;;;;;;;;;;;;;;;;;5002731;28;19932;-89
2023/03/21 12:59:40;;;;;;;;;;;;;;;;;;4996400;28;19918;-88
2023/03/21 13:02:26;;;;;;;;;;;;;;;;;;5002592;28;19921;-87
2023/03/21 13:05:15;;;;;;;;;;;;;;;;;;5001513;28;19928;-86
2023/03/21 13:08:02;;;;;;;;;;;;;;;;;;5003527;28;19921;-88
2023/03/21 13:10:48;;;;;;;;;;;;;;;;;;5002865;28;19929;-89
2023/03/21 13:13:35;;;;;;;;;;;;;;;;;;4992994;28;19936;-88
2023/03/21 13:16:21;;;;;;;;;;;;;;;;;;5002755;28;19948;-87
2023/03/21 13:19:08;;;;;;;;;;;;;;;;;;4998450;28;19921;-89
2023/03/21 13:21:54;;;;;;;;;;;;;;;;;;5002861;28;19928;-88
2023/03/21 13:24:42;;;;;;;;;;;;;;;;;;5002018;28;20292;-88
2023/03/21 13:27:29;;;;;;;;;;;;;;;;;;4998660;28;19929;-89
2023/03/21 13:30:15;;;;;;;;;;;;;;;;;;5008416;28;19917;-88
2023/03/21 13:33:02;;;;;;;;;;;;;;;;;;4998379;28;19929;-88
2023/03/21 13:35:48;;;;;;;;;;;;;;;;;;4991437;28;20596;-89
2023/03/21 13:38:37;;;;;;;;;;;;;;;;;;5001241;28;19932;-89
2023/03/21 13:41:23;;;;;;;;;;;;;;;;;;5007106;28;19945;-91
2023/03/21 13:44:10;;;;;;;;;;;;;;;;;;5000839;28;19929;-90
2023/03/21 13:46:56;;;;;;;;;;;;;;;;;;5006140;28;19922;-90
2023/03/21 13:49:43;;;;;;;;;;;;;;;;;;5006842;28;20294;-90
2023/03/21 13:52:29;;;;;;;;;;;;;;;;;;5006580;28;19924;-89
2023/03/21 13:55:15;;;;;;;;;;;;;;;;;;5000716;28;19925;-88
2023/03/21 13:58:02;;;;;;;;;;;;;;;;;;5005116;28;19928;-89
2023/03/21 14:00:50;;;;;;;;;;;;;;;;;;5003312;28;20470;-88
2023/03/21 14:03:38;;;;;;;;;;;;;;;;;;5008285;28;19921;-86
2023/03/21 14:06:24;;;;;;;;;;;;;;;;;;5005578;28;19931;-89
2023/03/21 14:09:11;;;;;;;;;;;;;;;;;;5002358;28;19921;-88
2023/03/21 14:11:57;;;;;;;;;;;;;;;;;;5006938;28;19921;-86
2023/03/21 14:14:44;;;;;;;;;;;;;;;;;;5005208;28;19939;-86
2023/03/21 14:17:30;;;;;;;;;;;;;;;;;;5005113;28;19925;-86
2023/03/21 14:20:17;;;;;;;;;;;;;;;;;;5003772;28;19921;-85
2023/03/21 14:23:03;;;;;;;;;;;;;;;;;;5006668;28;19918;-87
2023/03/21 14:25:50;;;;;;;;;;;;;;;;;;5006432;28;20381;-86
2023/03/21 14:28:36;;;;;;;;;;;;;;;;;;4999292;28;19921;-87
2023/03/21 14:31:23;;;;;;;;;;;;;;;;;;5006936;28;19925;-88
2023/03/21 14:34:09;;;;;;;;;;;;;;;;;;5007554;28;20101;-88
2023/03/21 14:36:56;;;;;;;;;;;;;;;;;;5007760;28;19992;-90
2023/03/21 14:39:42;;;;;;;;;;;;;;;;;;5010110;28;19921;-92
2023/03/21 14:42:29;;;;;;;;;;;;;;;;;;4994764;28;19918;-93
2023/03/21 14:45:15;;;;;;;;;;;;;;;;;;5015889;28;19937;-94
2023/03/21 14:48:02;;;;;;;;;;;;;;;;;;5002416;28;19964;-93
2023/03/21 14:50:48;;;;;;;;;;;;;;;;;;5004960;28;19928;-91
2023/03/21 14:53:35;;;;;;;;;;;;;;;;;;5000749;28;19922;-90
2023/03/21 14:56:21;;;;;;;;;;;;;;;;;;5010410;28;19936;-91
2023/03/21 14:59:08;;;;;;;;;;;;;;;;;;5004385;28;19926;-89
2023/03/21 15:01:54;;;;;;;;;;;;;;;;;;5002102;28;19921;-91
2023/03/21 15:04:41;;;;;;;;;;;;;;;;;;5004113;28;20312;-92
2023/03/21 15:07:27;;;;;;;;;;;;;;;;;;5007170;28;19928;-91
2023/03/21 15:10:16;;;;;;;;;;;;;;;;;;5008384;28;19932;-94
2023/03/21 15:13:02;;;;;;;;;;;;;;;;;;4994267;28;19937;-92
2023/03/21 15:15:49;;;;;;;;;;;;;;;;;;4990556;28;19948;-92
2023/03/21 15:18:35;;;;;;;;;;;;;;;;;;5005056;28;21092;-91
2023/03/21 15:21:22;;;;;;;;;;;;;;;;;;5003405;28;19914;-94
2023/03/21 15:24:12;;;;;;;;;;;;;;;;;;5007830;28;20452;-90
2023/03/21 15:26:59;;;;;;;;;;;;;;;;;;5003859;28;19921;-87
2023/03/21 15:29:46;;;;;;;;;;;;;;;;;;4999493;28;20486;-91
2023/03/21 15:32:33;;;;;;;;;;;;;;;;;;5000109;28;19936;-91
2023/03/21 15:35:19;;;;;;;;;;;;;;;;;;4996572;28;19926;-86
2023/03/21 15:38:06;;;;;;;;;;;;;;;;;;5005704;28;19917;-90
2023/03/21 15:40:52;;;;;;;;;;;;;;;;;;5003129;28;19921;-92
2023/03/21 15:43:39;;;;;;;;;;;;;;;;;;5000481;28;19922;-88
2023/03/21 15:46:25;;;;;;;;;;;;;;;;;;5003034;28;19940;-89
2023/03/21 15:49:12;;;;;;;;;;;;;;;;;;5008108;28;19924;-89
2023/03/21 15:51:58;;;;;;;;;;;;;;;;;;4988182;28;20591;-93
2023/03/21 15:54:46;;;;;;;;;;;;;;;;;;5000976;28;19921;-90
2023/03/21 15:57:33;;;;;;;;;;;;;;;;;;4996052;28;19922;-88
2023/03/21 16:00:23;;;;;;;;;;;;;;;;;;5009143;28;20349;-93
2023/03/21 16:03:10;;;;;;;;;;;;;;;;;;4993854;28;20378;-94
2023/03/21 16:05:56;;;;;;;;;;;;;;;;;;5006199;28;19928;-91
2023/03/21 16:08:43;;;;;;;;;;;;;;;;;;5007827;28;19914;-92
2023/03/21 16:11:30;;;;;;;;;;;;;;;;;;4997725;28;19917;-92
2023/03/21 16:14:20;;;;;;;;;;;;;;;;;;5004283;28;20384;-91
2023/03/21 16:17:06;;;;;;;;;;;;;;;;;;5004722;28;19914;-91
2023/03/21 16:19:53;;;;;;;;;;;;;;;;;;4994760;28;20373;-91
2023/03/21 16:22:39;;;;;;;;;;;;;;;;;;5001324;28;19914;-91
2023/03/21 16:25:26;;;;;;;;;;;;;;;;;;5002540;28;20419;-91
2023/03/21 16:28:12;;;;;;;;;;;;;;;;;;5006610;28;19917;-77
2023/03/21 16:30:59;;;;;;;;;;;;;;;;;;5002306;28;19928;-87
2023/03/21 16:33:46;;;;;;;;;;;;;;;;;;4991320;28;19929;-87
2023/03/21 16:36:32;;;;;;;;;;;;;;;;;;4997125;28;20741;-88
2023/03/21 16:39:19;;;;;;;;;;;;;;;;;;4987860;28;19918;-86
2023/03/21 16:42:05;;;;;;;;;;;;;;;;;;5001293;28;19917;-88
2023/03/21 16:44:52;;;;;;;;;;;;;;;;;;4998833;28;21452;-87
2023/03/21 16:47:39;;;;;;;;;;;;;;;;;;4987501;28;19922;-88
2023/03/21 16:50:25;;;;;;;;;;;;;;;;;;5003818;28;19925;-86
2023/03/21 16:53:12;;;;;;;;;;;;;;;;;;4982490;28;19925;-86
2023/03/21 16:56:01;;;;;;;;;;;;;;;;;;5006268;28;19936;-84
2023/03/21 16:58:47;;;;;;;;;;;;;;;;;;4999447;28;19922;-83
2023/03/21 17:01:37;;;;;;;;;;;;;;;;;;4992251;28;19914;-83
2023/03/21 17:04:23;;;;;;;;;;;;;;;;;;4991836;28;19937;-83
2023/03/21 17:07:13;;;;;;;;;;;;;;;;;;4997316;28;19917;-84
2023/03/21 17:09:59;;;;;;;;;;;;;;;;;;4996983;28;19917;-84
2023/03/21 17:12:45;;;;;;;;;;;;;;;;;;4992833;28;19922;-83
2023/03/21 17:15:32;;;;;;;;;;;;;;;;;;4994225;28;19930;-84
2023/03/21 17:18:19;;;;;;;;;;;;;;;;;;4996283;28;20299;-83
2023/03/21 17:21:05;;;;;;;;;;;;;;;;;;5001544;28;19922;-84
2023/03/21 17:23:52;;;;;;;;;;;;;;;;;;4999958;28;19947;-83
2023/03/21 17:26:38;;;;;;;;;;;;;;;;;;4995602;28;19929;-84
2023/03/21 17:29:25;;;;;;;;;;;;;;;;;;5003236;28;19922;-84
2023/03/21 17:32:13;;;;;;;;;;;;;;;;;;4997440;28;19920;-83
2023/03/21 17:34:59;;;;;;;;;;;;;;;;;;5002968;28;19932;-84
2023/03/21 17:37:49;;;;;;;;;;;;;;;;;;4999531;28;20056;-84
2023/03/21 17:40:35;;;;;;;;;;;;;;;;;;4994208;28;19914;-86
2023/03/21 17:43:22;;;;;;;;;;;;;;;;;;4994702;28;20008;-83
2023/03/21 17:46:09;;;;;;;;;;;;;;;;;;5008971;28;19918;-84
2023/03/21 17:48:56;;;;;;;;;;;;;;;;;;5000457;28;19928;-85
2023/03/21 17:51:45;;;;;;;;;;;;;;;;;;5007201;28;19914;-87
2023/03/21 17:54:32;;;;;;;;;;;;;;;;;;5002123;28;19944;-86
2023/03/21 17:57:19;;;;;;;;;;;;;;;;;;5000941;28;20025;-85
2023/03/21 18:00:11;;;;;;;;;;;;;;;;;;5008469;28;19926;-83
2023/03/21 18:02:57;;;;;;;;;;;;;;;;;;4999878;28;19921;-87
2023/03/21 18:05:44;;;;;;;;;;;;;;;;;;5006279;28;19913;-88
2023/03/21 18:08:30;;;;;;;;;;;;;;;;;;5002602;28;19922;-85
2023/03/21 18:11:17;;;;;;;;;;;;;;;;;;5002597;28;19925;-86
2023/03/21 18:14:03;;;;;;;;;;;;;;;;;;4991634;28;19930;-83
2023/03/21 18:16:52;;;;;;;;;;;;;;;;;;5004223;28;20420;-84
2023/03/21 18:19:39;;;;;;;;;;;;;;;;;;5000956;28;19924;-84
2023/03/21 18:22:26;;;;;;;;;;;;;;;;;;5000891;28;19918;-85
2023/03/21 18:25:12;;;;;;;;;;;;;;;;;;4998117;28;19918;-82
2023/03/21 18:27:58;;;;;;;;;;;;;;;;;;5000783;28;19921;-83
2023/03/21 18:30:45;;;;;;;;;;;;;;;;;;4998322;28;19952;-84
2023/03/21 18:33:31;;;;;;;;;;;;;;;;;;4992143;28;20399;-84
2023/03/21 18:36:18;;;;;;;;;;;;;;;;;;4995942;28;19926;-82
2023/03/21 18:39:05;;;;;;;;;;;;;;;;;;5001752;28;19924;-83
2023/03/21 18:41:53;;;;;;;;;;;;;;;;;;5002403;28;19918;-84
2023/03/21 18:44:44;;;;;;;;;;;;;;;;;;4997745;28;19918;-86
2023/03/21 18:47:30;;;;;;;;;;;;;;;;;;4997409;28;20453;-86
2023/03/21 18:50:17;;;;;;;;;;;;;;;;;;5003835;28;19924;-83
2023/03/21 18:53:03;;;;;;;;;;;;;;;;;;5001628;28;19917;-82
2023/03/21 18:55:50;;;;;;;;;;;;;;;;;;5001088;28;19936;-83
2023/03/21 18:58:37;;;;;;;;;;;;;;;;;;5002700;28;19920;-83